createdAt,value
2023-02-20T00:00:10.747Z,102296.34
2023-02-20T00:02:37.227Z,102292.56
2023-02-20T00:05:04.000Z,102291.66
2023-02-20T00:07:30.463Z,102288.16
2023-02-20T00:09:56.889Z,102278.66
2023-02-20T00:12:23.373Z,102272.88
2023-02-20T00:14:49.941Z,102269.47
2023-02-20T00:17:16.404Z,102267.97
2023-02-20T00:19:42.881Z,102263.03
2023-02-20T00:22:09.333Z,102268.84
2023-02-20T00:24:35.775Z,102250.75
2023-02-20T00:27:02.273Z,102258.44
2023-02-20T00:29:28.714Z,102257.97
2023-02-20T00:31:57.862Z,102261.09
2023-02-20T00:34:27.137Z,102247.59
2023-02-20T00:36:53.854Z,102239.06
2023-02-20T00:39:20.878Z,102234.63
2023-02-20T00:41:47.339Z,102235.03
2023-02-20T00:44:13.790Z,102224.16
2023-02-20T00:46:40.259Z,102231.88
2023-02-20T00:49:06.722Z,102235.94
2023-02-20T00:51:33.595Z,102225.75
2023-02-20T00:54:00.407Z,102229.00
2023-02-20T00:56:27.122Z,102228.94
2023-02-20T00:58:53.869Z,102227.50
2023-02-20T01:01:20.724Z,102204.94
2023-02-20T01:03:47.320Z,102191.78
2023-02-20T01:06:14.205Z,102192.25
2023-02-20T01:08:40.773Z,102171.00
2023-02-20T01:11:07.271Z,102191.31
2023-02-20T01:13:33.799Z,102192.72
2023-02-20T01:16:00.304Z,102187.56
2023-02-20T01:18:26.866Z,102187.22
2023-02-20T01:20:53.308Z,102186.28
2023-02-20T01:23:19.837Z,102188.16
2023-02-20T01:25:46.315Z,102188.00
2023-02-20T01:28:12.777Z,102183.56
2023-02-20T01:30:39.373Z,102180.47
2023-02-20T01:33:08.679Z,102184.38
2023-02-20T01:35:35.139Z,102180.41
2023-02-20T01:38:09.325Z,102168.47
2023-02-20T01:40:35.884Z,102171.66
2023-02-20T01:43:03.782Z,102179.00
2023-02-20T01:45:30.402Z,102178.22
2023-02-20T01:47:58.250Z,102166.06
2023-02-20T01:50:42.262Z,102163.41
2023-02-20T01:53:19.765Z,102154.81
2023-02-20T01:56:09.015Z,102159.38
2023-02-20T01:58:43.296Z,102159.88
2023-02-20T02:01:10.611Z,102161.59
2023-02-20T02:03:39.866Z,102167.56
2023-02-20T02:06:09.693Z,102160.22
2023-02-20T02:08:39.028Z,102155.03
2023-02-20T02:11:09.588Z,102120.13
2023-02-20T02:13:39.031Z,102118.00
2023-02-20T02:16:11.668Z,102120.66
2023-02-20T02:18:53.516Z,102113.53
2023-02-20T02:21:58.826Z,102108.94
2023-02-20T02:24:43.344Z,102099.09
2023-02-20T02:27:28.108Z,102091.28
2023-02-20T02:30:00.212Z,102078.91
2023-02-20T02:32:52.895Z,102068.66
2023-02-20T02:35:34.514Z,102083.59
2023-02-20T02:38:13.179Z,102067.88
2023-02-20T02:41:05.040Z,102069.59
2023-02-20T02:43:43.726Z,102062.03
2023-02-20T02:46:21.900Z,102074.75
2023-02-20T02:48:56.862Z,102069.47
2023-02-20T02:51:31.524Z,102048.25
2023-02-20T02:54:12.720Z,102042.72
2023-02-20T02:56:42.933Z,102039.66
2023-02-20T02:59:14.244Z,102048.25
2023-02-20T03:01:49.742Z,102038.81
2023-02-20T03:04:23.386Z,102038.16
2023-02-20T03:06:56.140Z,102039.84
2023-02-20T03:09:34.888Z,102043.06
2023-02-20T03:12:03.743Z,102030.81
2023-02-20T03:15:01.451Z,102037.44
2023-02-20T03:17:38.095Z,102044.09
2023-02-20T03:20:16.463Z,102029.88
2023-02-20T03:22:56.096Z,102031.59
2023-02-20T03:25:36.264Z,102026.44
2023-02-20T03:28:09.205Z,102027.38
2023-02-20T03:30:40.126Z,102032.88
2023-02-20T03:33:39.568Z,102019.47
2023-02-20T03:36:30.474Z,102018.78
2023-02-20T03:39:27.101Z,102014.63
2023-02-20T03:42:14.443Z,102020.81
2023-02-20T03:44:42.339Z,102016.13
2023-02-20T03:47:13.144Z,102009.91
2023-02-20T03:49:43.066Z,102022.75
2023-02-20T03:52:10.324Z,102020.91
2023-02-20T03:54:37.091Z,102016.56
2023-02-20T03:57:09.712Z,102021.16
2023-02-20T03:59:45.202Z,102025.75
2023-02-20T04:02:20.131Z,102015.19
2023-02-20T04:04:51.642Z,102020.69
2023-02-20T04:07:53.306Z,102018.66
2023-02-20T04:10:25.471Z,102013.59
2023-02-20T04:12:55.007Z,102020.59
2023-02-20T04:15:22.877Z,102025.19
2023-02-20T04:18:00.550Z,102027.69
2023-02-20T04:20:27.083Z,102022.75
2023-02-20T04:22:58.705Z,102017.25
2023-02-20T04:25:49.827Z,102007.84
2023-02-20T04:28:17.092Z,102013.13
2023-02-20T04:30:44.299Z,102011.19
2023-02-20T04:33:13.541Z,102015.41
2023-02-20T04:35:40.800Z,102009.69
2023-02-20T04:38:08.492Z,102009.34
2023-02-20T04:40:34.989Z,102005.53
2023-02-20T04:43:01.597Z,101998.44
2023-02-20T04:45:28.144Z,102006.34
2023-02-20T04:47:54.672Z,101994.66
2023-02-20T04:50:30.972Z,102000.50
2023-02-20T04:52:58.574Z,101995.22
2023-02-20T04:55:25.920Z,101992.59
2023-02-20T04:57:53.707Z,102001.28
2023-02-20T05:00:22.062Z,101999.34
2023-02-20T05:02:49.378Z,101981.44
2023-02-20T05:05:25.378Z,101995.91
2023-02-20T05:08:04.382Z,101984.88
2023-02-20T05:10:32.587Z,101970.59
2023-02-20T05:12:59.554Z,101968.63
2023-02-20T05:15:27.749Z,101963.34
2023-02-20T05:17:54.289Z,101978.94
2023-02-20T05:20:21.027Z,101959.34
2023-02-20T05:22:48.165Z,101969.56
2023-02-20T05:25:15.547Z,101977.81
2023-02-20T05:27:42.619Z,101985.59
2023-02-20T05:30:10.344Z,101984.44
2023-02-20T05:32:37.759Z,101978.94
2023-02-20T05:35:04.812Z,101972.31
2023-02-20T05:37:33.407Z,101971.84
2023-02-20T05:40:00.124Z,101954.63
2023-02-20T05:42:26.578Z,101958.44
2023-02-20T05:44:53.048Z,101954.88
2023-02-20T05:47:19.603Z,101959.56
2023-02-20T05:49:46.878Z,101960.59
2023-02-20T05:52:13.395Z,101952.56
2023-02-20T05:54:40.793Z,101943.72
2023-02-20T05:57:08.326Z,101946.28
2023-02-20T05:59:34.898Z,101947.97
2023-02-20T06:02:01.825Z,101941.91
2023-02-20T06:04:29.757Z,101942.38
2023-02-20T06:06:56.277Z,101944.78
2023-02-20T06:09:23.122Z,101942.94
2023-02-20T06:11:51.692Z,101946.16
2023-02-20T06:14:19.879Z,101952.00
2023-02-20T06:16:46.914Z,101958.31
2023-02-20T06:19:18.978Z,101957.03
2023-02-20T06:21:47.031Z,101969.78
2023-02-20T06:24:13.740Z,101976.44
2023-02-20T06:26:41.600Z,101980.09
2023-02-20T06:29:08.243Z,101990.53
2023-02-20T06:31:34.802Z,101991.78
2023-02-20T06:34:01.403Z,101983.66
2023-02-20T06:36:30.888Z,101997.53
2023-02-20T06:38:58.399Z,101984.69
2023-02-20T06:41:25.154Z,101991.13
2023-02-20T06:43:51.591Z,101987.66
2023-02-20T06:46:18.154Z,101996.16
2023-02-20T06:48:50.760Z,102005.47
2023-02-20T06:51:28.446Z,101998.22
2023-02-20T06:53:55.176Z,102003.72
2023-02-20T06:56:26.497Z,102000.63
2023-02-20T06:58:54.334Z,102001.06
2023-02-20T07:01:23.678Z,101999.25
2023-02-20T07:03:50.836Z,101994.78
2023-02-20T07:06:17.580Z,102007.25
2023-02-20T07:08:44.254Z,102004.63
2023-02-20T07:11:12.093Z,101998.66
2023-02-20T07:13:38.750Z,101996.03
2023-02-20T07:16:05.787Z,102005.00
2023-02-20T07:18:32.277Z,102000.28
2023-02-20T07:20:58.789Z,102003.16
2023-02-20T07:23:25.582Z,101980.34
2023-02-20T07:25:52.112Z,102006.13
2023-02-20T07:28:20.000Z,101985.72
2023-02-20T07:30:49.163Z,101992.81
2023-02-20T07:33:16.991Z,101988.47
2023-02-20T07:35:43.625Z,102006.72
2023-02-20T07:38:10.346Z,102003.63
2023-02-20T07:40:38.957Z,102008.91
2023-02-20T07:43:06.484Z,101988.94
2023-02-20T07:45:33.036Z,101997.06
2023-02-20T07:47:59.591Z,101993.41
2023-02-20T07:50:26.164Z,102003.50
2023-02-20T07:52:52.674Z,101984.47
2023-02-20T07:55:19.798Z,101987.34
2023-02-20T07:57:51.613Z,101995.00
2023-02-20T08:00:19.498Z,101996.16
2023-02-20T08:02:46.504Z,102003.72
2023-02-20T08:05:13.555Z,102007.16
2023-02-20T08:07:47.968Z,102004.19
2023-02-20T08:10:16.219Z,102001.44
2023-02-20T08:12:42.746Z,102002.81
2023-02-20T08:15:12.633Z,102012.88
2023-02-20T08:17:46.474Z,101999.50
2023-02-20T08:20:19.214Z,101998.41
2023-02-20T08:22:47.226Z,101993.94
2023-02-20T08:25:15.513Z,101995.53
2023-02-20T08:27:47.188Z,102034.25
2023-02-20T08:30:27.026Z,102005.19
2023-02-20T08:32:55.019Z,101990.16
2023-02-20T08:35:24.619Z,102009.88
2023-02-20T08:37:51.323Z,101993.59
2023-02-20T08:40:17.936Z,101998.84
2023-02-20T08:42:44.462Z,101993.59
2023-02-20T08:45:11.233Z,101995.88
2023-02-20T08:47:37.752Z,101967.75
2023-02-20T08:50:04.889Z,101979.00
2023-02-20T08:52:31.488Z,101969.16
2023-02-20T08:54:58.018Z,101973.81
2023-02-20T08:57:24.591Z,101975.06
2023-02-20T08:59:51.046Z,101963.41
2023-02-20T09:02:20.067Z,101974.78
2023-02-20T09:04:47.428Z,101966.38
2023-02-20T09:07:14.700Z,101970.03
2023-02-20T09:09:41.269Z,101981.91
2023-02-20T09:12:09.133Z,101974.31
2023-02-20T09:14:36.310Z,101986.19
2023-02-20T09:17:02.918Z,101981.19
2023-02-20T09:19:29.488Z,101973.19
2023-02-20T09:21:56.057Z,101993.06
2023-02-20T09:24:22.627Z,101978.44
2023-02-20T09:26:49.281Z,101963.66
2023-02-20T09:29:15.753Z,101966.03
2023-02-20T09:31:42.477Z,101956.84
2023-02-20T09:34:09.416Z,101968.78
2023-02-20T09:36:35.967Z,101967.72
2023-02-20T09:39:02.475Z,101956.22
2023-02-20T09:41:38.093Z,101964.16
2023-02-20T09:44:32.401Z,101956.25
2023-02-20T09:47:12.968Z,101981.03
2023-02-20T09:49:39.826Z,101958.47
2023-02-20T09:52:12.517Z,101972.78
2023-02-20T09:54:48.046Z,101956.97
2023-02-20T09:57:19.584Z,101943.00
2023-02-20T09:59:51.393Z,101939.72
2023-02-20T10:02:29.886Z,101952.63
2023-02-20T10:05:04.495Z,101939.97
2023-02-20T10:07:38.499Z,101946.19
2023-02-20T10:10:19.108Z,101932.84
2023-02-20T10:13:04.936Z,101932.16
2023-02-20T10:16:04.158Z,101945.84
2023-02-20T10:18:42.645Z,101929.41
2023-02-20T10:21:47.759Z,101951.38
2023-02-20T10:24:34.575Z,101927.47
2023-02-20T10:27:42.364Z,101938.56
2023-02-20T10:30:23.252Z,101924.25
2023-02-20T10:33:11.588Z,101936.25
2023-02-20T10:36:14.522Z,101937.50
2023-02-20T10:39:01.944Z,101935.47
2023-02-20T10:41:34.319Z,101931.09
2023-02-20T10:44:19.303Z,101939.09
2023-02-20T10:47:04.801Z,101928.53
2023-02-20T10:49:35.936Z,101928.34
2023-02-20T10:52:06.848Z,101925.13
2023-02-20T10:54:43.655Z,101922.47
2023-02-20T10:57:33.845Z,101924.69
2023-02-20T11:00:23.084Z,101924.31
2023-02-20T11:02:57.708Z,101912.31
2023-02-20T11:05:26.701Z,101902.25
2023-02-20T11:07:53.305Z,101900.91
2023-02-20T11:10:19.787Z,101906.88
2023-02-20T11:12:48.972Z,101884.34
2023-02-20T11:15:19.522Z,101887.91
2023-02-20T11:17:48.461Z,101897.06
2023-02-20T11:20:33.360Z,101890.84
2023-02-20T11:23:04.154Z,101898.94
2023-02-20T11:25:34.637Z,101905.97
2023-02-20T11:28:24.448Z,101895.44
2023-02-20T11:31:03.223Z,101900.19
2023-02-20T11:33:50.783Z,101909.19
2023-02-20T11:36:22.917Z,101892.97
2023-02-20T11:38:57.607Z,101901.16
2023-02-20T11:41:38.275Z,101925.91
2023-02-20T11:44:10.445Z,101906.03
2023-02-20T11:46:37.323Z,101909.50
2023-02-20T11:49:07.657Z,101910.06
2023-02-20T11:51:40.175Z,101900.22
2023-02-20T11:54:29.520Z,101913.88
2023-02-20T11:57:23.907Z,101927.84
2023-02-20T11:59:52.559Z,101922.41
2023-02-20T12:02:26.130Z,101919.59
2023-02-20T12:05:08.645Z,101928.75
2023-02-20T12:07:55.588Z,101936.28
2023-02-20T12:10:30.946Z,101912.44
2023-02-20T12:12:57.775Z,101906.28
2023-02-20T12:15:27.722Z,101916.41
2023-02-20T12:18:18.453Z,101919.81
2023-02-20T12:21:23.201Z,101901.03
2023-02-20T12:24:08.532Z,101915.50
2023-02-20T12:26:49.754Z,101895.97
2023-02-20T12:29:31.658Z,101882.53
2023-02-20T12:32:05.431Z,101872.56
2023-02-20T12:34:52.967Z,101860.63
2023-02-20T12:37:54.873Z,101854.47
2023-02-20T12:40:38.098Z,101836.28
2023-02-20T12:43:26.279Z,101815.19
2023-02-20T12:46:11.061Z,101842.59
2023-02-20T12:48:46.621Z,101850.00
2023-02-20T12:51:51.551Z,101836.13
2023-02-20T12:54:28.430Z,101822.69
2023-02-20T12:57:34.323Z,101833.47
2023-02-20T13:00:15.619Z,101821.41
2023-02-20T13:02:58.545Z,101813.09
2023-02-20T13:05:27.525Z,101822.19
2023-02-20T13:07:57.171Z,101807.59
2023-02-20T13:10:25.314Z,101831.50
2023-02-20T13:12:53.667Z,101851.47
2023-02-20T13:15:42.227Z,101854.28
2023-02-20T13:18:27.065Z,101843.91
2023-02-20T13:21:02.785Z,101837.09
2023-02-20T13:23:36.749Z,101837.66
2023-02-20T13:26:23.964Z,101860.06
2023-02-20T13:28:51.265Z,101833.16
2023-02-20T13:31:22.352Z,101821.41
2023-02-20T13:34:22.605Z,101825.91
2023-02-20T13:36:50.537Z,101826.63
2023-02-20T13:39:17.429Z,101841.19
2023-02-20T13:41:55.895Z,101829.53
2023-02-20T13:44:28.673Z,101822.56
2023-02-20T13:47:04.090Z,101826.13
2023-02-20T13:49:58.428Z,101823.72
2023-02-20T13:52:35.059Z,101816.69
2023-02-20T13:55:10.578Z,101825.19
2023-02-20T13:57:53.385Z,101812.59
2023-02-20T14:00:55.862Z,101806.19
2023-02-20T14:03:26.674Z,101803.59
2023-02-20T14:06:12.119Z,101800.81
2023-02-20T14:08:42.085Z,101807.22
2023-02-20T14:11:12.733Z,101787.22
2023-02-20T14:13:42.826Z,101781.63
2023-02-20T14:16:44.212Z,101784.81
2023-02-20T14:19:25.919Z,101788.81
2023-02-20T14:21:53.105Z,101797.25
2023-02-20T14:24:28.407Z,101782.16
2023-02-20T14:26:59.363Z,101770.34
2023-02-20T14:29:25.804Z,101768.63
2023-02-20T14:31:57.818Z,101768.19
2023-02-20T14:34:34.710Z,101788.81
2023-02-20T14:37:16.716Z,101781.84
2023-02-20T14:40:24.633Z,101785.34
2023-02-20T14:42:51.111Z,101784.25
2023-02-20T14:45:26.466Z,101780.16
2023-02-20T14:47:54.120Z,101755.13
2023-02-20T14:50:27.880Z,101761.19
2023-02-20T14:53:09.817Z,101765.13
2023-02-20T14:55:36.309Z,101758.38
2023-02-20T14:58:14.068Z,101768.19
2023-02-20T15:00:42.285Z,101747.53
2023-02-20T15:03:30.251Z,101761.78
2023-02-20T15:06:02.859Z,101763.53
2023-02-20T15:08:37.776Z,101760.19
2023-02-20T15:11:15.542Z,101762.22
2023-02-20T15:13:45.789Z,101760.91
2023-02-20T15:16:18.025Z,101771.00
2023-02-20T15:18:48.410Z,101753.56
2023-02-20T15:21:35.580Z,101757.34
2023-02-20T15:24:12.344Z,101758.28
2023-02-20T15:26:39.180Z,101750.88
2023-02-20T15:29:27.059Z,101753.56
2023-02-20T15:32:00.193Z,101745.66
2023-02-20T15:34:38.391Z,101746.53
2023-02-20T15:37:33.889Z,101748.03
2023-02-20T15:40:27.813Z,101745.44
2023-02-20T15:42:58.133Z,101749.06
2023-02-20T15:45:26.902Z,101745.34
2023-02-20T15:47:53.694Z,101752.59
2023-02-20T15:50:21.329Z,101757.13
2023-02-20T15:52:48.792Z,101754.81
2023-02-20T15:55:20.729Z,101745.72
2023-02-20T15:57:54.868Z,101751.47
2023-02-20T16:00:25.178Z,101753.28
2023-02-20T16:02:52.582Z,101757.84
2023-02-20T16:05:19.979Z,101752.19
2023-02-20T16:07:46.578Z,101763.06
2023-02-20T16:10:17.206Z,101758.19
2023-02-20T16:12:44.048Z,101757.91
2023-02-20T16:15:16.268Z,101761.59
2023-02-20T16:17:43.303Z,101764.09
2023-02-20T16:20:18.579Z,101754.34
2023-02-20T16:22:45.026Z,101755.81
2023-02-20T16:25:15.127Z,101754.00
2023-02-20T16:27:42.028Z,101765.50
2023-02-20T16:30:32.192Z,101761.03
2023-02-20T16:33:00.179Z,101770.06
2023-02-20T16:35:26.759Z,101764.53
2023-02-20T16:37:53.652Z,101765.69
2023-02-20T16:40:20.131Z,101753.63
2023-02-20T16:42:46.978Z,101756.97
2023-02-20T16:45:16.479Z,101756.66
2023-02-20T16:47:43.850Z,101762.69
2023-02-20T16:50:16.631Z,101762.78
2023-02-20T16:52:43.084Z,101759.44
2023-02-20T16:55:20.488Z,101771.34
2023-02-20T16:57:47.011Z,101774.41
2023-02-20T17:00:18.373Z,101765.91
2023-02-20T17:02:45.141Z,101764.94
2023-02-20T17:05:12.781Z,101763.72
2023-02-20T17:07:39.547Z,101758.56
2023-02-20T17:10:07.690Z,101760.13
2023-02-20T17:12:34.445Z,101773.09
2023-02-20T17:15:01.692Z,101770.38
2023-02-20T17:17:28.285Z,101768.13
2023-02-20T17:19:58.291Z,101771.69
2023-02-20T17:22:26.405Z,101781.41
2023-02-20T17:24:53.805Z,101768.47
2023-02-20T17:27:20.390Z,101772.38
2023-02-20T17:29:47.833Z,101763.72
2023-02-20T17:32:15.834Z,101771.47
2023-02-20T17:34:42.543Z,101770.47
2023-02-20T17:37:09.828Z,101779.41
2023-02-20T17:39:37.439Z,101778.19
2023-02-20T17:42:04.287Z,101781.44
2023-02-20T17:44:31.642Z,101785.44
2023-02-20T17:46:59.632Z,101779.50
2023-02-20T17:49:27.240Z,101777.13
2023-02-20T17:51:58.558Z,101796.00
2023-02-20T17:54:25.202Z,101778.31
2023-02-20T17:56:52.092Z,101786.97
2023-02-20T17:59:19.003Z,101784.34
2023-02-20T18:01:46.142Z,101780.94
2023-02-20T18:04:13.017Z,101785.16
2023-02-20T18:06:39.965Z,101783.19
2023-02-20T18:09:09.074Z,101789.72
2023-02-20T18:11:36.435Z,101785.50
2023-02-20T18:14:03.101Z,101779.91
2023-02-20T18:16:29.692Z,101781.06
2023-02-20T18:18:56.322Z,101789.69
2023-02-20T18:21:26.523Z,101768.84
2023-02-20T18:23:53.115Z,101776.28
2023-02-20T18:26:19.907Z,101770.16
2023-02-20T18:28:46.779Z,101766.16
2023-02-20T18:31:14.191Z,101771.19
2023-02-20T18:33:41.112Z,101776.41
2023-02-20T18:36:08.795Z,101779.31
2023-02-20T18:38:35.862Z,101767.81
2023-02-20T18:41:02.444Z,101776.13
2023-02-20T18:43:28.960Z,101783.47
2023-02-20T18:45:55.577Z,101768.13
2023-02-20T18:48:22.096Z,101773.16
2023-02-20T18:50:49.822Z,101772.78
2023-02-20T18:53:16.499Z,101767.38
2023-02-20T18:55:43.182Z,101772.19
2023-02-20T18:58:09.639Z,101766.25
2023-02-20T19:00:38.617Z,101769.53
2023-02-20T19:03:05.229Z,101774.81
2023-02-20T19:05:31.795Z,101778.19
2023-02-20T19:07:58.879Z,101768.78
2023-02-20T19:10:27.112Z,101769.41
2023-02-20T19:12:54.688Z,101764.50
2023-02-20T19:15:25.231Z,101777.28
2023-02-20T19:17:52.616Z,101772.53
2023-02-20T19:20:26.897Z,101766.84
2023-02-20T19:22:55.123Z,101757.53
2023-02-20T19:25:22.724Z,101742.09
2023-02-20T19:27:49.426Z,101748.72
2023-02-20T19:30:16.828Z,101743.31
2023-02-20T19:32:43.769Z,101741.78
2023-02-20T19:35:10.821Z,101752.09
2023-02-20T19:37:38.777Z,101733.72
2023-02-20T19:40:06.957Z,101736.84
2023-02-20T19:42:33.580Z,101732.75
2023-02-20T19:45:00.111Z,101737.78
2023-02-20T19:47:27.327Z,101738.84
2023-02-20T19:49:53.845Z,101738.28
2023-02-20T19:52:20.296Z,101727.69
2023-02-20T19:54:47.534Z,101730.78
2023-02-20T19:57:14.547Z,101734.56
2023-02-20T19:59:43.551Z,101730.78
2023-02-20T20:02:11.324Z,101736.38
2023-02-20T20:04:38.045Z,101739.31
2023-02-20T20:07:04.653Z,101728.63
2023-02-20T20:09:36.614Z,101726.97
2023-02-20T20:12:05.137Z,101707.75
2023-02-20T20:14:31.737Z,101710.19
2023-02-20T20:16:58.322Z,101703.81
2023-02-20T20:19:25.353Z,101708.72
2023-02-20T20:21:51.810Z,101719.78
2023-02-20T20:24:18.508Z,101723.72
2023-02-20T20:26:45.048Z,101722.88
2023-02-20T20:29:11.517Z,101720.50
2023-02-20T20:31:41.427Z,101720.25
2023-02-20T20:34:08.663Z,101711.72
2023-02-20T20:36:35.512Z,101720.47
2023-02-20T20:39:02.352Z,101720.59
2023-02-20T20:41:36.191Z,101715.91
2023-02-20T20:44:09.575Z,101716.38
2023-02-20T20:46:39.758Z,101711.19
2023-02-20T20:49:06.313Z,101723.59
2023-02-20T20:51:32.836Z,101719.25
2023-02-20T20:53:59.355Z,101707.72
2023-02-20T20:56:25.890Z,101707.84
2023-02-20T20:58:52.459Z,101713.84
2023-02-20T21:01:19.157Z,101722.00
2023-02-20T21:03:45.693Z,101713.88
2023-02-20T21:06:12.862Z,101716.00
2023-02-20T21:08:39.306Z,101727.22
2023-02-20T21:11:06.094Z,101711.06
2023-02-20T21:13:32.689Z,101704.38
2023-02-20T21:15:59.209Z,101706.69
2023-02-20T21:18:25.671Z,101711.72
2023-02-20T21:20:52.131Z,101713.31
2023-02-20T21:23:18.627Z,101719.16
2023-02-20T21:25:45.095Z,101706.75
2023-02-20T21:28:11.541Z,101708.09
2023-02-20T21:30:38.038Z,101695.34
2023-02-20T21:33:04.619Z,101713.13
2023-02-20T21:35:31.084Z,101708.66
2023-02-20T21:37:57.721Z,101708.34
2023-02-20T21:40:24.258Z,101718.84
2023-02-20T21:43:09.269Z,101707.16
2023-02-20T21:45:36.485Z,101707.16
2023-02-20T21:48:04.713Z,101695.63
2023-02-20T21:50:31.551Z,101698.09
2023-02-20T21:52:58.165Z,101694.78
2023-02-20T21:55:24.737Z,101693.56
2023-02-20T21:57:51.574Z,101693.72
2023-02-20T22:00:18.064Z,101694.59
2023-02-20T22:02:44.600Z,101688.19
2023-02-20T22:05:11.604Z,101697.06
2023-02-20T22:07:56.735Z,101690.31
2023-02-20T22:10:43.107Z,101704.28
2023-02-20T22:13:28.056Z,101699.09
2023-02-20T22:16:13.542Z,101699.09
2023-02-20T22:18:58.778Z,101694.16
2023-02-20T22:21:44.796Z,101698.28
2023-02-20T22:24:38.250Z,101705.91
2023-02-20T22:27:25.924Z,101696.59
2023-02-20T22:30:11.520Z,101694.22
2023-02-20T22:32:56.907Z,101707.53
2023-02-20T22:35:42.008Z,101694.16
2023-02-20T22:38:26.872Z,101697.22
2023-02-20T22:41:11.894Z,101701.25
2023-02-20T22:43:57.131Z,101690.72
2023-02-20T22:46:44.720Z,101687.91
2023-02-20T22:49:29.888Z,101689.16
2023-02-20T22:52:14.726Z,101697.16
2023-02-20T22:55:06.674Z,101694.91
2023-02-20T22:57:52.515Z,101692.34
2023-02-20T23:00:38.283Z,101686.47
2023-02-20T23:03:23.796Z,101700.06
2023-02-20T23:06:17.589Z,101687.94
2023-02-20T23:09:04.096Z,101698.03
2023-02-20T23:11:52.381Z,101691.69
2023-02-20T23:14:37.654Z,101689.97
2023-02-20T23:17:36.365Z,101710.25
2023-02-20T23:20:27.923Z,101699.56
2023-02-20T23:23:13.424Z,101704.25
2023-02-20T23:25:58.730Z,101697.63
2023-02-20T23:28:43.559Z,101691.03
2023-02-20T23:31:29.100Z,101698.75
2023-02-20T23:34:13.885Z,101703.00
2023-02-20T23:37:04.779Z,101700.66
2023-02-20T23:39:49.748Z,101699.13
2023-02-20T23:42:36.442Z,101692.25
2023-02-20T23:45:21.757Z,101695.94
2023-02-20T23:48:07.769Z,101705.34
2023-02-20T23:50:52.638Z,101700.06
2023-02-20T23:53:37.731Z,101700.66
2023-02-20T23:56:24.131Z,101704.28
2023-02-20T23:59:09.592Z,101709.88
